Molunkus Township, Maine
Current Conditions -  °F | °C
As of 4:03 PM on Thursday 18 Dec 2014 (Local Time) from KHUL Reporting Station
Overcast Overcast  
Wind Chill: 19°   Ceiling: 1900
Heat Index: 29°   Visibility: 9mi
Dew Point: 24°   Wind: 13mph
Humidity: 82%   Direction: 330°NNW
Pressure: 29.54"   Gusts: 21mph
Location:  45.574°N, 68.322°W
Report Text: KHUL 182103Z AUTO 33011G18KT 9SM BKN019 BKN047 OVC055 M02/M04 A2954 RMK AO2 T10171044
Loading
Personal Weather Stations






























Interactive Weather Map New forecast layout! Learn more

10-Day Weather Forecast

Advertisements
Track Severe Weather on mobile